Time;durP1;ratioP1;P1;durP2;ratioP2;P2;SDS_P1;SDS_P2;PMS_P1;PMS_P2;Temp;Humidity;BMP_temperature;BMP_pressure;BME280_temperature;BME280_humidity;BME280_pressure;Samples;Min_cycle;Max_cycle;Signal;HPM_P1;HPM_P2
2022/05/20 00:00:08;;;;;;;1.70;1.10;;;26.20;48.60;;;;;;5020153;28;20093;-67
2022/05/20 00:02:34;;;;;;;1.88;1.17;;;26.20;48.60;;;;;;5018386;28;20120;-65
2022/05/20 00:05:00;;;;;;;1.63;1.10;;;26.20;48.60;;;;;;5021213;28;20120;-63
2022/05/20 00:07:26;;;;;;;2.05;1.10;;;26.20;48.60;;;;;;5018129;28;20108;-67
2022/05/20 00:09:51;;;;;;;1.17;0.98;;;26.20;48.60;;;;;;5021417;28;20029;-65
2022/05/20 00:12:19;;;;;;;1.60;1.30;;;26.20;48.60;;;;;;5014047;28;20043;-67
2022/05/20 00:14:45;;;;;;;1.58;1.10;;;26.20;48.60;;;;;;5018971;28;20075;-66
2022/05/20 00:17:10;;;;;;;1.52;1.10;;;26.20;48.60;;;;;;5019053;28;20179;-65
2022/05/20 00:19:36;;;;;;;2.35;1.20;;;26.10;48.60;;;;;;5003093;28;20469;-65
2022/05/20 00:22:05;;;;;;;2.00;1.20;;;26.10;48.60;;;;;;5018943;28;20041;-64
2022/05/20 00:24:30;;;;;;;1.73;1.10;;;26.20;48.70;;;;;;5020875;28;20100;-66
2022/05/20 00:26:56;;;;;;;1.90;1.10;;;26.20;48.70;;;;;;5015475;28;20037;-66
2022/05/20 00:29:22;;;;;;;1.67;1.10;;;26.20;48.70;;;;;;5018441;28;20094;-63
2022/05/20 00:31:48;;;;;;;1.77;1.30;;;26.20;48.70;;;;;;5017210;28;20640;-64
2022/05/20 00:34:13;;;;;;;1.60;1.10;;;26.10;48.70;;;;;;5021285;28;20029;-66
2022/05/20 00:36:39;;;;;;;1.48;1.13;;;26.10;48.70;;;;;;5017253;28;20053;-63
2022/05/20 00:39:05;;;;;;;2.03;1.10;;;26.10;49.20;;;;;;5018603;28;20036;-67
2022/05/20 00:41:30;;;;;;;1.85;1.25;;;26.10;48.70;;;;;;5017614;28;20109;-66
2022/05/20 00:43:58;;;;;;;1.90;1.13;;;26.10;48.70;;;;;;5016201;28;20068;-66
2022/05/20 00:46:26;;;;;;;1.45;1.10;;;26.10;48.70;;;;;;5019269;28;20681;-66
2022/05/20 00:49:04;;;;;;;2.20;1.20;;;26.10;49.30;;;;;;5017480;28;20041;-66
2022/05/20 00:51:35;;;;;;;1.40;1.00;;;26.00;48.70;;;;;;5019794;28;20032;-66
2022/05/20 00:54:19;;;;;;;1.88;1.10;;;26.10;48.70;;;;;;5018747;28;20086;-66
2022/05/20 00:56:52;;;;;;;2.95;1.10;;;26.00;48.70;;;;;;4999643;28;20029;-66
2022/05/20 00:59:25;;;;;;;1.85;1.20;;;26.00;48.70;;;;;;5015893;28;20060;-63
2022/05/20 01:01:53;;;;;;;1.92;1.20;;;26.00;48.70;;;;;;5016843;28;20105;-67
2022/05/20 01:04:20;;;;;;;1.70;1.10;;;26.00;48.80;;;;;;5020204;28;20109;-66
2022/05/20 01:06:45;;;;;;;2.22;1.23;;;26.00;48.70;;;;;;5019191;28;21106;-66
2022/05/20 01:09:11;;;;;;;1.63;1.10;;;26.00;48.80;;;;;;5026856;28;20113;-66
2022/05/20 01:11:38;;;;;;;1.75;1.23;;;26.00;48.80;;;;;;5016998;28;20476;-66
2022/05/20 01:14:05;;;;;;;1.67;1.23;;;26.00;48.80;;;;;;5016349;28;20048;-67
2022/05/20 01:16:32;;;;;;;1.80;1.13;;;26.00;48.80;;;;;;5018410;28;20059;-66
2022/05/20 01:18:57;;;;;;;1.35;1.10;;;26.00;48.80;;;;;;5017406;28;20037;-67
2022/05/20 01:21:23;;;;;;;1.80;1.15;;;26.00;48.80;;;;;;5019305;28;20039;-66
2022/05/20 01:23:49;;;;;;;2.72;1.10;;;26.00;48.80;;;;;;5017062;28;20112;-64
2022/05/20 01:26:15;;;;;;;1.25;1.00;;;25.90;48.70;;;;;;5018724;28;21097;-66
2022/05/20 01:28:41;;;;;;;1.70;1.00;;;26.00;48.80;;;;;;5015837;28;20028;-66
2022/05/20 01:31:13;;;;;;;1.45;1.05;;;25.90;48.70;;;;;;5011547;28;20040;-66
2022/05/20 01:33:48;;;;;;;1.33;1.10;;;25.90;48.70;;;;;;5016651;28;20036;-66
2022/05/20 01:36:18;;;;;;;1.33;1.00;;;25.90;48.70;;;;;;5017358;28;20039;-67
2022/05/20 01:38:44;;;;;;;1.65;1.23;;;25.90;48.70;;;;;;5017492;28;20087;-66
2022/05/20 01:41:11;;;;;;;1.40;1.10;;;25.90;48.70;;;;;;5013050;28;20043;-66
2022/05/20 01:43:55;;;;;;;2.03;1.00;;;25.90;48.80;;;;;;4996740;28;20053;-65
2022/05/20 01:46:38;;;;;;;1.33;1.00;;;25.90;48.70;;;;;;5009041;28;20805;-67
2022/05/20 01:49:29;;;;;;;1.10;1.00;;;25.90;48.70;;;;;;5016823;28;20031;-67
2022/05/20 01:52:23;;;;;;;2.20;1.23;;;25.90;48.70;;;;;;5007444;28;20517;-65
2022/05/20 01:55:03;;;;;;;1.30;0.93;;;25.90;48.70;;;;;;5019614;28;20031;-66
2022/05/20 01:57:49;;;;;;;1.20;1.00;;;25.90;48.70;;;;;;5015721;28;20437;-66
2022/05/20 02:00:19;;;;;;;1.60;1.08;;;25.90;48.70;;;;;;5018071;28;20705;-65
2022/05/20 02:02:57;;;;;;;1.23;1.00;;;25.90;48.80;;;;;;5016679;28;20035;-66
2022/05/20 02:05:31;;;;;;;1.40;1.10;;;25.90;48.80;;;;;;5016934;28;20033;-66
2022/05/20 02:08:05;;;;;;;1.85;1.35;;;25.90;48.80;;;;;;5015626;28;20109;-66
2022/05/20 02:11:13;;;;;;;1.30;1.00;;;25.80;48.70;;;;;;5020334;28;20079;-67
2022/05/20 02:13:45;;;;;;;1.52;1.08;;;25.90;48.70;;;;;;5007812;28;20052;-66
2022/05/20 02:16:38;;;;;;;1.20;0.90;;;25.80;48.60;;;;;;5017157;28;20033;-65
2022/05/20 02:19:10;;;;;;;1.75;1.00;;;25.80;48.70;;;;;;4996941;28;20047;-66
2022/05/20 02:21:40;;;;;;;1.88;1.00;;;25.80;48.70;;;;;;5018124;28;20103;-68
2022/05/20 02:24:11;;;;;;;1.10;0.90;;;25.80;48.60;;;;;;5016629;28;20155;-66
2022/05/20 02:26:43;;;;;;;1.30;1.02;;;25.80;48.60;;;;;;5017241;28;20417;-66
2022/05/20 02:29:20;;;;;;;1.25;0.93;;;25.80;48.60;;;;;;5016035;28;20036;-68
2022/05/20 02:31:51;;;;;;;2.58;1.10;;;25.80;48.70;;;;;;5016419;28;20151;-66
2022/05/20 02:34:17;;;;;;;1.75;1.05;;;25.80;48.70;;;;;;5017945;28;20128;-65
2022/05/20 02:36:42;;;;;;;1.30;0.90;;;25.80;48.70;;;;;;5019182;28;20542;-66
2022/05/20 02:39:15;;;;;;;1.45;1.00;;;25.80;48.60;;;;;;5014818;28;20156;-63
2022/05/20 02:41:45;;;;;;;1.85;1.08;;;25.80;48.70;;;;;;5016804;28;20065;-68
2022/05/20 02:44:11;;;;;;;1.35;1.00;;;25.80;48.70;;;;;;5015979;28;20037;-66
2022/05/20 02:46:39;;;;;;;1.27;1.10;;;25.80;48.70;;;;;;5015488;28;20048;-66
2022/05/20 02:49:05;;;;;;;1.15;1.00;;;25.80;48.70;;;;;;5017778;28;20034;-66
2022/05/20 02:51:30;;;;;;;1.95;1.00;;;25.80;48.70;;;;;;5011187;28;20107;-66
2022/05/20 02:53:56;;;;;;;1.15;0.80;;;25.80;48.70;;;;;;5021501;28;20041;-65
2022/05/20 02:56:22;;;;;;;1.50;0.82;;;25.80;48.60;;;;;;5018151;28;20057;-65
2022/05/20 03:04:17;;;;;;;1.30;1.00;;;25.70;48.60;;;;;;5020576;28;20087;-66
2022/05/20 03:06:48;;;;;;;1.00;0.82;;;25.70;48.60;;;;;;5021121;28;20041;-68
2022/05/20 03:09:17;;;;;;;1.83;1.08;;;25.70;48.60;;;;;;5020164;28;20095;-63
2022/05/20 03:11:44;;;;;;;0.80;0.80;;;25.70;48.60;;;;;;5017883;28;20148;-63
2022/05/20 03:14:13;;;;;;;1.00;0.80;;;25.70;48.60;;;;;;5016867;28;20101;-68
2022/05/20 03:16:40;;;;;;;1.55;1.08;;;25.70;48.60;;;;;;5019976;28;20037;-66
2022/05/20 03:19:07;;;;;;;1.05;0.95;;;25.70;48.60;;;;;;5017227;28;20128;-68
2022/05/20 03:21:33;;;;;;;1.00;0.90;;;25.70;48.60;;;;;;5015635;28;20033;-66
2022/05/20 03:24:00;;;;;;;1.60;0.90;;;25.70;48.60;;;;;;5017109;28;20025;-66
2022/05/20 03:26:30;;;;;;;1.00;0.90;;;25.70;48.60;;;;;;5019755;28;20057;-67
2022/05/20 03:28:59;;;;;;;1.02;0.93;;;25.70;48.60;;;;;;5018265;28;20040;-65
2022/05/20 03:31:25;;;;;;;1.05;0.90;;;25.70;48.60;;;;;;5021534;28;20072;-67
2022/05/20 03:33:51;;;;;;;0.80;0.80;;;25.70;48.60;;;;;;5020380;28;20059;-66
2022/05/20 03:36:17;;;;;;;1.02;0.90;;;25.70;48.60;;;;;;5020141;28;20063;-68
2022/05/20 03:38:42;;;;;;;1.23;0.98;;;25.70;48.70;;;;;;5018875;28;20039;-67
2022/05/20 03:41:10;;;;;;;1.38;0.90;;;25.70;48.60;;;;;;5017303;28;20088;-66
2022/05/20 03:43:36;;;;;;;1.05;0.80;;;25.70;48.70;;;;;;5014950;28;20060;-66
2022/05/20 03:46:02;;;;;;;2.17;1.20;;;25.70;48.70;;;;;;5020340;28;20040;-67
2022/05/20 03:48:28;;;;;;;1.58;1.20;;;25.70;48.80;;;;;;5019831;28;20025;-67
2022/05/20 03:50:54;;;;;;;2.75;1.10;;;25.60;48.90;;;;;;5021686;28;20346;-66
2022/05/20 03:53:20;;;;;;;1.90;1.00;;;25.60;48.80;;;;;;5017868;28;20037;-67
2022/05/20 03:55:45;;;;;;;1.25;1.00;;;25.60;48.80;;;;;;5020459;28;20116;-67
2022/05/20 03:58:11;;;;;;;2.85;1.15;;;25.50;48.70;;;;;;5016623;28;20115;-67
2022/05/20 04:03:24;;;;;;;2.20;1.33;;;25.40;48.60;;;;;;5018956;28;20106;-67
2022/05/20 04:05:50;;;;;;;2.08;1.20;;;25.40;48.50;;;;;;5019711;28;20094;-66
2022/05/20 04:08:17;;;;;;;2.22;1.30;;;25.30;48.50;;;;;;5019392;28;20033;-66
2022/05/20 04:10:42;;;;;;;1.92;1.30;;;25.30;48.60;;;;;;5019207;28;20088;-67
2022/05/20 04:13:08;;;;;;;2.25;1.27;;;25.30;48.60;;;;;;5017191;28;20164;-68
2022/05/20 04:15:34;;;;;;;2.47;1.20;;;25.30;48.60;;;;;;5019058;28;20037;-66
2022/05/20 04:18:00;;;;;;;1.90;1.23;;;25.30;48.70;;;;;;5020006;28;20631;-67
2022/05/20 04:20:26;;;;;;;1.70;1.20;;;25.30;49.00;;;;;;5019568;28;20733;-66
2022/05/20 04:22:52;;;;;;;1.23;1.00;;;25.20;49.00;;;;;;5018731;28;20101;-69
2022/05/20 04:25:17;;;;;;;1.90;1.20;;;25.20;49.00;;;;;;5020854;28;20101;-62
2022/05/20 04:27:43;;;;;;;1.98;1.13;;;25.20;48.90;;;;;;5015427;28;20507;-66
2022/05/20 04:30:09;;;;;;;1.92;1.20;;;25.20;48.90;;;;;;5018065;28;20038;-67
2022/05/20 04:32:35;;;;;;;1.52;1.20;;;25.10;48.90;;;;;;5016572;28;20029;-67
2022/05/20 04:35:01;;;;;;;2.05;1.10;;;25.10;48.90;;;;;;5021125;28;20026;-70
2022/05/20 04:37:27;;;;;;;1.48;1.10;;;25.10;48.90;;;;;;5019439;28;20120;-64
2022/05/20 04:39:54;;;;;;;2.05;1.30;;;25.10;48.90;;;;;;5019908;28;20074;-66
2022/05/20 04:47:49;;;;;;;3.35;1.40;;;25.00;48.90;;;;;;5019793;28;20091;-65
2022/05/20 04:50:15;;;;;;;1.70;1.30;;;25.00;49.00;;;;;;5023050;28;20367;-62
2022/05/20 04:52:41;;;;;;;1.98;1.00;;;25.00;49.00;;;;;;5018457;28;20033;-67
2022/05/20 04:55:08;;;;;;;2.03;1.30;;;25.00;49.00;;;;;;5017315;28;20036;-66
2022/05/20 04:57:46;;;;;;;2.60;1.40;;;25.00;49.10;;;;;;5018113;28;20039;-67
2022/05/20 05:00:24;;;;;;;1.85;1.30;;;24.90;49.30;;;;;;5019705;28;20029;-63
2022/05/20 05:02:51;;;;;;;2.10;1.40;;;24.90;49.40;;;;;;5018179;28;20047;-63
2022/05/20 05:05:20;;;;;;;2.90;1.20;;;24.90;49.60;;;;;;5017612;28;20079;-66
2022/05/20 05:07:49;;;;;;;2.28;1.33;;;24.90;49.50;;;;;;4997871;28;20033;-66
2022/05/20 05:10:19;;;;;;;2.42;1.20;;;24.90;49.60;;;;;;5018615;28;20522;-66
2022/05/20 05:12:45;;;;;;;2.30;1.23;;;24.80;49.80;;;;;;5018872;28;20032;-66
2022/05/20 05:15:12;;;;;;;2.38;1.30;;;24.80;50.30;;;;;;5016352;28;20351;-64
2022/05/20 05:20:25;;;;;;;3.55;1.30;;;24.70;49.90;;;;;;5021361;28;20048;-65
2022/05/20 05:22:52;;;;;;;1.90;1.20;;;24.70;50.10;;;;;;5017305;28;20029;-66
2022/05/20 05:25:19;;;;;;;2.30;1.30;;;24.70;50.10;;;;;;5018424;28;20029;-65
2022/05/20 05:27:46;;;;;;;2.80;1.40;;;24.70;50.30;;;;;;5014716;28;20041;-66
2022/05/20 05:30:12;;;;;;;2.10;1.35;;;24.70;50.30;;;;;;5016073;28;20054;-65
2022/05/20 05:32:39;;;;;;;1.85;1.17;;;24.60;50.20;;;;;;5011240;28;20033;-66
2022/05/20 05:35:07;;;;;;;2.33;1.40;;;24.60;50.40;;;;;;5015500;28;21038;-66
2022/05/20 05:37:37;;;;;;;2.25;1.00;;;24.70;50.50;;;;;;5019658;28;20814;-65
2022/05/20 05:40:05;;;;;;;1.20;0.93;;;24.70;50.60;;;;;;5017409;28;20064;-65
2022/05/20 05:42:30;;;;;;;1.40;1.00;;;24.80;50.30;;;;;;5017656;28;20341;-65
2022/05/20 05:44:56;;;;;;;1.50;1.00;;;24.80;50.10;;;;;;5017479;28;20037;-65
2022/05/20 05:47:22;;;;;;;1.67;1.10;;;24.80;49.90;;;;;;5019051;28;20033;-66
2022/05/20 05:49:47;;;;;;;1.77;1.00;;;24.90;49.90;;;;;;5020547;28;20035;-66
2022/05/20 05:52:13;;;;;;;1.15;0.90;;;24.90;49.70;;;;;;5018183;28;21037;-62
2022/05/20 05:54:39;;;;;;;1.38;1.10;;;25.00;49.70;;;;;;5016707;28;20026;-66
2022/05/20 05:57:05;;;;;;;1.00;0.90;;;25.00;49.60;;;;;;5019024;28;21148;-65
2022/05/20 05:59:32;;;;;;;1.75;1.10;;;25.00;49.40;;;;;;5014378;28;20033;-64
2022/05/20 06:01:59;;;;;;;2.75;1.45;;;25.10;49.30;;;;;;5017553;28;20041;-65
2022/05/20 06:04:25;;;;;;;1.92;1.10;;;25.10;49.30;;;;;;5017450;28;20140;-66
2022/05/20 06:06:50;;;;;;;1.88;1.05;;;25.10;49.30;;;;;;5016119;28;20104;-66
2022/05/20 06:09:16;;;;;;;1.55;1.20;;;25.20;49.20;;;;;;5016328;28;20132;-65
2022/05/20 06:11:42;;;;;;;1.27;0.90;;;25.20;49.10;;;;;;5017550;28;20154;-66
2022/05/20 06:14:07;;;;;;;2.22;1.00;;;25.20;49.10;;;;;;5016142;28;20047;-65
2022/05/20 06:16:33;;;;;;;1.60;1.00;;;25.30;49.10;;;;;;5019214;28;20522;-64
2022/05/20 06:18:59;;;;;;;1.52;1.00;;;25.30;49.00;;;;;;5017518;28;20033;-65
2022/05/20 06:21:26;;;;;;;2.40;1.00;;;25.30;48.90;;;;;;5016973;28;20117;-65
2022/05/20 06:23:52;;;;;;;1.60;1.10;;;25.30;49.00;;;;;;5019705;28;20397;-64
2022/05/20 06:26:18;;;;;;;1.63;1.15;;;25.30;48.90;;;;;;5022334;28;20032;-65
2022/05/20 06:28:44;;;;;;;1.67;1.10;;;25.40;48.80;;;;;;5022270;28;20026;-64
2022/05/20 06:31:10;;;;;;;2.08;1.10;;;25.40;48.80;;;;;;5026344;28;20138;-65
2022/05/20 06:33:35;;;;;;;2.67;1.10;;;25.40;48.80;;;;;;5026091;28;20229;-61
2022/05/20 06:41:30;;;;;;;1.75;1.20;;;25.50;48.70;;;;;;5024962;28;20047;-65
2022/05/20 06:43:55;;;;;;;1.90;1.33;;;25.50;48.60;;;;;;5021744;28;20037;-64
2022/05/20 06:46:21;;;;;;;1.88;1.20;;;25.50;48.60;;;;;;5024616;28;20551;-64
2022/05/20 06:48:51;;;;;;;1.52;0.98;;;25.60;48.60;;;;;;5025130;28;20107;-65
2022/05/20 06:51:20;;;;;;;1.38;1.00;;;25.60;48.50;;;;;;5028376;28;20089;-65
2022/05/20 06:53:46;;;;;;;1.85;1.10;;;25.60;48.50;;;;;;5023199;28;20106;-65
2022/05/20 06:56:12;;;;;;;1.67;1.10;;;25.60;48.50;;;;;;5024390;28;20029;-65
2022/05/20 06:58:38;;;;;;;1.40;1.02;;;25.70;48.50;;;;;;5022051;28;20031;-65
2022/05/20 07:01:05;;;;;;;1.02;0.93;;;25.70;48.50;;;;;;5024413;28;20470;-65
2022/05/20 07:03:30;;;;;;;1.30;1.00;;;25.70;48.40;;;;;;5025554;28;20032;-65
2022/05/20 07:05:56;;;;;;;1.48;0.93;;;25.70;48.50;;;;;;5022014;28;20547;-64
2022/05/20 07:08:22;;;;;;;1.10;0.90;;;25.70;48.60;;;;;;5023911;28;20504;-65
2022/05/20 07:10:48;;;;;;;1.50;1.00;;;25.70;48.70;;;;;;5024625;28;20033;-64
2022/05/20 07:13:14;;;;;;;1.42;1.20;;;25.70;48.70;;;;;;5024418;28;20021;-64
2022/05/20 07:15:39;;;;;;;1.25;1.00;;;25.70;48.70;;;;;;5026741;28;20041;-65
2022/05/20 07:18:05;;;;;;;1.40;1.08;;;25.80;48.70;;;;;;5034921;28;20039;-65
2022/05/20 07:20:31;;;;;;;1.70;1.00;;;25.80;48.80;;;;;;5028144;28;20506;-64
2022/05/20 07:22:56;;;;;;;1.48;1.02;;;25.80;48.60;;;;;;5025255;28;20036;-65
2022/05/20 07:25:22;;;;;;;2.08;1.10;;;25.90;48.50;;;;;;5030161;28;20021;-63
2022/05/20 07:27:48;;;;;;;1.40;1.10;;;25.90;48.60;;;;;;5038125;28;20035;-65
2022/05/20 07:30:16;;;;;;;1.48;1.15;;;25.90;48.60;;;;;;5044502;28;20029;-65
2022/05/20 07:32:42;;;;;;;1.40;1.10;;;25.90;48.50;;;;;;5040897;28;20063;-65
2022/05/20 07:35:09;;;;;;;1.90;1.20;;;25.90;48.40;;;;;;5040529;28;20056;-65
2022/05/20 07:37:35;;;;;;;1.40;1.00;;;26.00;48.40;;;;;;5037621;28;20095;-62
2022/05/20 07:40:02;;;;;;;1.10;0.90;;;26.00;48.30;;;;;;5030856;28;20036;-65
2022/05/20 07:42:28;;;;;;;1.40;1.10;;;26.00;48.30;;;;;;5024707;28;20409;-64
2022/05/20 07:44:54;;;;;;;1.73;1.00;;;26.00;48.30;;;;;;5021360;28;20140;-66
2022/05/20 07:47:20;;;;;;;1.65;1.00;;;26.00;48.40;;;;;;5022988;28;20425;-64
2022/05/20 07:49:46;;;;;;;1.10;1.00;;;26.00;48.50;;;;;;5024859;28;20462;-65
2022/05/20 07:53:19;;;;;;;1.55;1.13;;;26.00;48.40;;;;;;5024249;28;20613;-61
2022/05/20 07:55:01;;;;;;;1.42;0.90;;;26.10;48.50;;;;;;5016215;28;20828;-62
2022/05/20 07:57:27;;;;;;;1.45;1.00;;;26.10;48.70;;;;;;5017567;28;20040;-65
2022/05/20 07:59:54;;;;;;;2.00;1.10;;;26.10;48.60;;;;;;5023191;28;20025;-65
2022/05/20 08:02:23;;;;;;;1.77;0.93;;;26.10;48.60;;;;;;5018503;28;20414;-64
2022/05/20 08:05:01;;;;;;;1.50;1.00;;;26.20;48.40;;;;;;5037191;28;20086;-66
2022/05/20 08:07:33;;;;;;;1.05;0.90;;;26.20;48.40;;;;;;5027996;28;20048;-65
2022/05/20 08:10:04;;;;;;;2.05;1.10;;;26.20;48.30;;;;;;5018840;28;20079;-64
2022/05/20 08:12:30;;;;;;;1.38;1.10;;;26.20;48.20;;;;;;5024011;28;20095;-65
2022/05/20 08:14:55;;;;;;;1.40;1.15;;;26.30;48.30;;;;;;5038882;28;20226;-64
2022/05/20 08:17:24;;;;;;;1.75;1.10;;;26.20;48.20;;;;;;5027597;28;20717;-63
2022/05/20 08:19:51;;;;;;;1.60;1.17;;;26.20;48.20;;;;;;5036396;28;20057;-61
2022/05/20 08:22:22;;;;;;;1.60;1.10;;;26.30;48.20;;;;;;5020080;28;20172;-64
2022/05/20 08:24:52;;;;;;;1.80;1.02;;;26.30;48.80;;;;;;5020096;28;20025;-64
2022/05/20 08:27:19;;;;;;;1.60;1.10;;;26.30;48.20;;;;;;5015381;28;20531;-65
2022/05/20 08:29:45;;;;;;;1.33;1.00;;;26.30;48.40;;;;;;5019970;28;20025;-64
2022/05/20 08:32:10;;;;;;;1.20;0.90;;;26.30;48.10;;;;;;5018918;28;20040;-64
2022/05/20 08:34:36;;;;;;;1.30;0.90;;;26.30;48.10;;;;;;5016695;28;21157;-63
2022/05/20 08:37:02;;;;;;;1.80;1.08;;;26.30;48.10;;;;;;5019075;28;20104;-64
2022/05/20 08:39:27;;;;;;;1.38;1.08;;;26.30;48.10;;;;;;5019102;28;20124;-63
2022/05/20 08:41:54;;;;;;;1.50;1.08;;;26.30;48.10;;;;;;5014936;28;20129;-65
2022/05/20 08:44:22;;;;;;;1.70;1.10;;;26.30;48.00;;;;;;5018030;28;20025;-65
2022/05/20 08:46:49;;;;;;;1.33;1.10;;;26.30;48.10;;;;;;5019460;28;20404;-64
2022/05/20 08:49:17;;;;;;;1.10;0.90;;;26.30;48.10;;;;;;5019924;28;20076;-62
2022/05/20 08:51:53;;;;;;;1.70;1.05;;;26.40;48.20;;;;;;5018359;28;20040;-63
2022/05/20 08:54:19;;;;;;;3.08;1.20;;;26.40;48.20;;;;;;5018192;28;20476;-65
2022/05/20 08:56:46;;;;;;;2.45;1.00;;;26.40;48.20;;;;;;5018400;28;20106;-64
2022/05/20 08:59:17;;;;;;;1.40;1.00;;;26.40;48.10;;;;;;5014725;28;20029;-64
2022/05/20 09:01:46;;;;;;;1.35;0.90;;;26.40;48.10;;;;;;5015052;28;20052;-64
2022/05/20 09:04:15;;;;;;;1.77;1.00;;;26.40;48.10;;;;;;5015675;28;20615;-64
2022/05/20 09:07:03;;;;;;;1.33;1.00;;;26.40;48.10;;;;;;5017320;28;20646;-64
2022/05/20 09:09:39;;;;;;;1.30;1.00;;;26.40;48.10;;;;;;5020853;28;20029;-66
2022/05/20 09:12:06;;;;;;;1.77;1.00;;;26.40;48.00;;;;;;5014339;28;20741;-63
2022/05/20 09:17:25;;;;;;;1.65;1.35;;;26.50;48.00;;;;;;5019244;28;20051;-64
2022/05/20 09:20:05;;;;;;;1.45;0.98;;;26.50;48.00;;;;;;5015907;28;20025;-61
2022/05/20 09:22:37;;;;;;;1.15;1.00;;;26.50;47.90;;;;;;5019504;28;20280;-64
2022/05/20 09:25:27;;;;;;;1.40;1.10;;;26.50;47.90;;;;;;5017472;28;20061;-63
2022/05/20 09:28:14;;;;;;;1.48;0.95;;;26.50;47.90;;;;;;5009003;28;20035;-63
2022/05/20 09:30:42;;;;;;;1.20;1.00;;;26.50;47.80;;;;;;5015015;28;20034;-61
2022/05/20 09:33:27;;;;;;;1.40;1.10;;;26.60;48.00;;;;;;5018533;28;20037;-65
2022/05/20 09:35:58;;;;;;;1.33;1.00;;;26.60;48.10;;;;;;5019597;28;20057;-63
2022/05/20 09:38:43;;;;;;;1.73;1.27;;;26.60;48.10;;;;;;5018138;28;20033;-65
2022/05/20 09:41:10;;;;;;;1.63;1.20;;;26.60;48.00;;;;;;5015939;28;20036;-59
2022/05/20 09:43:40;;;;;;;1.00;0.90;;;26.60;48.00;;;;;;5016305;28;20769;-64
2022/05/20 09:46:10;;;;;;;1.20;0.90;;;26.60;48.10;;;;;;5019124;28;20034;-65
2022/05/20 09:48:41;;;;;;;1.38;1.00;;;26.70;48.10;;;;;;5017816;28;20033;-60
2022/05/20 09:51:18;;;;;;;1.40;1.00;;;26.60;48.10;;;;;;5016884;28;20104;-65
2022/05/20 09:54:04;;;;;;;1.27;1.00;;;26.60;48.10;;;;;;5016067;28;20021;-64
2022/05/20 09:56:33;;;;;;;1.50;1.10;;;26.70;48.20;;;;;;5016401;28;20036;-63
2022/05/20 09:59:20;;;;;;;1.20;0.90;;;26.70;48.10;;;;;;5014771;28;20021;-60
2022/05/20 10:02:09;;;;;;;1.05;0.90;;;26.70;48.10;;;;;;5017852;28;20041;-64
2022/05/20 10:04:44;;;;;;;1.27;0.98;;;26.70;48.10;;;;;;5010516;28;20045;-64
2022/05/20 10:07:15;;;;;;;1.50;1.00;;;26.70;48.10;;;;;;5027069;28;20037;-64
2022/05/20 10:09:59;;;;;;;2.55;1.00;;;26.70;48.10;;;;;;5027458;28;20028;-64
2022/05/20 10:12:28;;;;;;;1.10;1.00;;;26.80;48.20;;;;;;5025535;28;20839;-64
2022/05/20 10:15:13;;;;;;;1.55;0.90;;;26.70;48.60;;;;;;5027076;28;20029;-65
2022/05/20 10:18:33;;;;;;;1.38;1.00;;;26.70;48.10;;;;;;5027663;28;20041;-65
2022/05/20 10:21:13;;;;;;;1.48;0.95;;;26.80;48.20;;;;;;4966621;28;20038;-62
2022/05/20 10:23:51;;;;;;;1.20;1.05;;;26.80;48.70;;;;;;5022081;28;20473;-61
2022/05/20 10:26:26;;;;;;;1.40;1.00;;;26.80;48.10;;;;;;5027901;28;20079;-61
2022/05/20 10:32:37;;;;;;;1.75;1.10;;;26.80;48.00;;;;;;4950089;28;20039;-64
2022/05/20 10:35:07;;;;;;;1.30;1.00;;;26.80;48.00;;;;;;5026964;28;20045;-63
2022/05/20 10:37:33;;;;;;;1.33;0.95;;;26.80;48.00;;;;;;5026510;28;20037;-60
2022/05/20 10:40:17;;;;;;;1.20;1.00;;;26.80;48.10;;;;;;5030545;28;20059;-64
2022/05/20 10:43:07;;;;;;;1.40;1.00;;;26.90;48.10;;;;;;5023002;28;20127;-65
2022/05/20 10:48:51;;;;;;;1.25;0.90;;;26.90;48.10;;;;;;5029344;28;20086;-63
2022/05/20 10:51:59;;;;;;;1.30;0.90;;;26.90;48.00;;;;;;5029341;28;20041;-63
2022/05/20 10:54:49;;;;;;;0.98;0.90;;;26.90;48.00;;;;;;5011972;28;20603;-64
2022/05/20 10:57:33;;;;;;;1.10;1.00;;;26.90;48.00;;;;;;5018231;28;20041;-65
2022/05/20 11:00:08;;;;;;;1.40;1.00;;;26.90;48.10;;;;;;5025112;28;20107;-64
2022/05/20 11:02:55;;;;;;;0.88;0.80;;;26.90;48.20;;;;;;5022799;28;20472;-63
2022/05/20 11:05:45;;;;;;;1.65;1.10;;;26.90;48.10;;;;;;5026524;28;20040;-65
2022/05/20 11:08:17;;;;;;;0.85;0.80;;;26.90;48.00;;;;;;5027204;28;20526;-65
2022/05/20 11:10:54;;;;;;;1.30;1.00;;;26.90;48.10;;;;;;5024941;28;20032;-64
2022/05/20 11:13:41;;;;;;;1.15;1.05;;;26.90;48.20;;;;;;5007763;28;20029;-64
2022/05/20 11:16:25;;;;;;;1.10;1.00;;;26.90;48.10;;;;;;5024955;28;20077;-64
2022/05/20 11:19:10;;;;;;;1.08;0.95;;;26.90;48.20;;;;;;5028039;28;20044;-63
2022/05/20 11:22:17;;;;;;;1.85;1.10;;;26.90;48.10;;;;;;5031841;28;20401;-63
2022/05/20 11:25:11;;;;;;;1.40;1.10;;;26.90;48.20;;;;;;5031306;28;20032;-64
2022/05/20 11:27:58;;;;;;;1.42;1.17;;;26.90;48.20;;;;;;5028617;28;20051;-64
2022/05/20 11:31:01;;;;;;;1.20;1.10;;;26.90;48.20;;;;;;5029674;28;20209;-61
2022/05/20 11:33:48;;;;;;;1.58;0.90;;;26.90;48.20;;;;;;5032755;28;20444;-67
2022/05/20 11:37:15;;;;;;;1.00;0.90;;;26.90;48.30;;;;;;5032840;28;20680;-64
2022/05/20 11:39:50;;;;;;;1.52;1.00;;;26.90;48.30;;;;;;4950972;28;20434;-65
2022/05/20 11:42:21;;;;;;;1.23;1.00;;;26.90;48.30;;;;;;4946944;28;20039;-65
2022/05/20 11:44:53;;;;;;;1.40;0.90;;;26.90;48.30;;;;;;4991079;28;20041;-64
2022/05/20 11:47:36;;;;;;;1.23;0.90;;;26.80;48.30;;;;;;5031470;28;20035;-65
2022/05/20 11:50:11;;;;;;;1.30;0.80;;;26.80;48.30;;;;;;5031259;28;20088;-64
2022/05/20 11:52:58;;;;;;;0.80;0.80;;;26.80;48.30;;;;;;5028144;28;20068;-64
2022/05/20 11:55:33;;;;;;;0.98;0.85;;;26.80;48.60;;;;;;5027609;28;20053;-64
2022/05/20 11:58:24;;;;;;;2.22;0.90;;;26.80;48.50;;;;;;5027039;28;20025;-62
2022/05/20 12:00:51;;;;;;;2.22;0.90;;;26.90;48.60;;;;;;5029645;28;20115;-64
2022/05/20 12:03:26;;;;;;;1.38;1.05;;;26.90;48.60;;;;;;5030028;28;20104;-65
2022/05/20 12:05:53;;;;;;;1.17;0.90;;;26.80;48.40;;;;;;5031034;28;20021;-66
2022/05/20 12:08:37;;;;;;;1.27;0.90;;;26.80;48.40;;;;;;5030454;28;20033;-64
2022/05/20 12:11:28;;;;;;;1.63;1.00;;;26.80;48.40;;;;;;5027869;28;20385;-63
2022/05/20 12:14:19;;;;;;;0.80;0.80;;;26.80;48.40;;;;;;5023573;28;20702;-64
2022/05/20 12:17:05;;;;;;;1.10;0.90;;;26.90;48.50;;;;;;5027642;28;20033;-65
2022/05/20 12:25:38;;;;;;;0.77;0.70;;;26.90;48.50;;;;;;5028054;28;20178;-62
2022/05/20 12:28:29;;;;;;;1.40;1.00;;;26.80;48.50;;;;;;5021376;28;21363;-64
2022/05/20 12:31:09;;;;;;;1.20;0.82;;;26.80;48.50;;;;;;5029460;28;20634;-66
2022/05/20 12:34:03;;;;;;;0.85;0.80;;;26.80;48.50;;;;;;5029463;28;20025;-61
2022/05/20 12:36:29;;;;;;;1.15;0.80;;;26.80;48.50;;;;;;5027760;28;20029;-60
2022/05/20 12:39:07;;;;;;;1.10;1.00;;;26.80;48.50;;;;;;5026392;28;20057;-64
2022/05/20 12:41:53;;;;;;;1.63;0.90;;;26.90;48.60;;;;;;5024227;28;20359;-63
2022/05/20 12:44:21;;;;;;;1.17;0.90;;;26.80;48.50;;;;;;5027413;28;20029;-64
2022/05/20 12:47:05;;;;;;;1.05;0.90;;;26.90;48.60;;;;;;5030309;28;20025;-63
2022/05/20 12:49:37;;;;;;;0.85;0.80;;;26.90;48.60;;;;;;5028295;28;20029;-61
2022/05/20 12:52:26;;;;;;;0.70;0.70;;;26.90;48.60;;;;;;5029804;28;20130;-63
2022/05/20 12:54:54;;;;;;;0.90;0.80;;;26.90;48.60;;;;;;5029789;28;20033;-62
2022/05/20 12:57:33;;;;;;;1.10;0.80;;;26.80;48.60;;;;;;5026813;28;20037;-62
2022/05/20 13:00:13;;;;;;;1.30;0.80;;;26.80;48.60;;;;;;5027463;28;20101;-63
2022/05/20 13:02:44;;;;;;;1.15;0.70;;;26.90;48.70;;;;;;5027594;28;20113;-64
2022/05/20 13:05:22;;;;;;;0.70;0.70;;;26.90;48.70;;;;;;5026232;28;20468;-64
2022/05/20 13:07:49;;;;;;;1.08;0.80;;;26.80;48.60;;;;;;5025105;28;20990;-63
2022/05/20 13:10:27;;;;;;;0.73;0.73;;;26.90;48.70;;;;;;5031058;28;20028;-65
2022/05/20 13:12:57;;;;;;;1.17;0.90;;;26.80;48.70;;;;;;5027197;28;20045;-64
2022/05/20 13:15:23;;;;;;;1.08;0.90;;;26.80;48.70;;;;;;5028252;28;20094;-64
2022/05/20 13:18:12;;;;;;;0.80;0.80;;;26.80;48.70;;;;;;5027860;28;20948;-63
2022/05/20 13:20:41;;;;;;;1.10;0.88;;;26.80;48.70;;;;;;5029496;28;20040;-63
2022/05/20 13:23:08;;;;;;;0.98;0.80;;;26.80;48.70;;;;;;5027124;28;20213;-65
2022/05/20 13:25:34;;;;;;;0.90;0.80;;;26.80;48.80;;;;;;5022328;28;20068;-64
2022/05/20 13:27:59;;;;;;;1.17;0.80;;;26.80;48.80;;;;;;5022036;28;20206;-63
2022/05/20 13:30:31;;;;;;;0.80;0.73;;;26.80;49.00;;;;;;5026786;28;20040;-64
2022/05/20 13:33:02;;;;;;;0.70;0.70;;;26.80;48.90;;;;;;5026105;28;20033;-64
2022/05/20 13:35:28;;;;;;;0.82;0.70;;;26.80;49.00;;;;;;5025707;28;20118;-65
2022/05/20 13:37:59;;;;;;;1.17;0.90;;;26.80;48.90;;;;;;5024318;28;20452;-65
2022/05/20 13:40:42;;;;;;;0.70;0.70;;;26.80;48.90;;;;;;5026068;28;20029;-64
2022/05/20 13:43:13;;;;;;;1.90;0.90;;;26.80;48.90;;;;;;5020450;28;20028;-63
2022/05/20 13:51:30;;;;;;;0.90;0.70;;;26.80;49.00;;;;;;5023605;28;20213;-64
2022/05/20 13:53:57;;;;;;;;;;;26.80;49.00;;;;;;5024558;28;20043;-63